createdAt,value
2016-06-15T00:00:54.518Z,0
2016-06-15T00:01:54.366Z,0
2016-06-15T00:02:54.494Z,0
2016-06-15T00:03:54.466Z,0
2016-06-15T00:04:54.734Z,0
2016-06-15T00:05:54.456Z,0
2016-06-15T00:06:54.459Z,0
2016-06-15T00:07:54.431Z,0
2016-06-15T00:08:54.403Z,0
2016-06-15T00:09:54.406Z,0
2016-06-15T00:10:54.410Z,0
2016-06-15T00:11:54.365Z,0
2016-06-15T00:12:54.353Z,0
2016-06-15T00:13:54.324Z,0
2016-06-15T00:14:54.328Z,0
2016-06-15T00:15:54.284Z,0
2016-06-15T00:16:54.287Z,0
2016-06-15T00:17:54.290Z,0
2016-06-15T00:18:54.277Z,0
2016-06-15T00:19:54.968Z,0
2016-06-15T00:20:54.236Z,0
2016-06-15T00:21:54.256Z,0
2016-06-15T00:22:54.196Z,0
2016-06-15T00:23:54.200Z,0
2016-06-15T00:24:54.170Z,0
2016-06-15T00:25:54.002Z,0
2016-06-15T00:26:54.161Z,0
2016-06-15T00:27:54.149Z,0
2016-06-15T00:28:54.120Z,0
2016-06-15T00:29:54.093Z,0
2016-06-15T00:30:54.110Z,0
2016-06-15T00:31:54.083Z,0
2016-06-15T00:32:54.070Z,0
2016-06-15T00:33:54.058Z,0
2016-06-15T00:34:53.889Z,0
2016-06-15T00:35:54.017Z,0
2016-06-15T00:36:54.021Z,0
2016-06-15T00:37:53.992Z,0
2016-06-15T00:38:53.979Z,0
2016-06-15T00:39:53.967Z,0
2016-06-15T00:40:53.955Z,0
2016-06-15T00:41:53.925Z,0
2016-06-15T00:42:53.929Z,0
2016-06-15T00:43:53.948Z,0
2016-06-15T00:44:53.889Z,0
2016-06-15T00:45:53.876Z,0
2016-06-15T00:46:53.848Z,0
2016-06-15T00:47:53.851Z,0
2016-06-15T00:48:53.822Z,0
2016-06-15T00:49:54.232Z,0
2016-06-15T00:50:53.813Z,0
2016-06-15T00:51:53.786Z,0
2016-06-15T00:52:53.803Z,0
2016-06-15T00:53:53.760Z,0
2016-06-15T00:54:53.748Z,0
2016-06-15T00:55:53.735Z,0
2016-06-15T00:56:53.566Z,0
2016-06-15T00:57:53.710Z,0
2016-06-15T00:58:53.541Z,0
2016-06-15T00:59:53.736Z,0
2016-06-15T01:00:53.760Z,0
2016-06-15T01:01:53.784Z,0
2016-06-15T01:02:53.807Z,0
2016-06-15T01:03:53.812Z,0
2016-06-15T01:04:53.641Z,0
2016-06-15T01:05:53.844Z,0
2016-06-15T01:06:53.782Z,0
2016-06-15T01:07:53.798Z,0
2016-06-15T01:08:53.776Z,0
2016-06-15T01:09:53.785Z,0
2016-06-15T01:10:53.761Z,0
2016-06-15T01:11:53.770Z,0
2016-06-15T01:12:53.605Z,0
2016-06-15T01:13:54.017Z,0
2016-06-15T01:14:53.865Z,0
2016-06-15T01:15:53.807Z,0
2016-06-15T01:16:53.687Z,0
2016-06-15T01:17:53.676Z,0
2016-06-15T01:18:53.696Z,0
2016-06-15T01:19:54.324Z,0
2016-06-15T01:20:54.235Z,0
2016-06-15T01:21:54.098Z,0
2016-06-15T01:22:53.790Z,0
2016-06-15T01:23:54.261Z,0
2016-06-15T01:24:53.592Z,0
2016-06-15T01:25:53.580Z,0
2016-06-15T01:26:53.552Z,0
2016-06-15T01:27:53.540Z,0
2016-06-15T01:28:53.526Z,0
2016-06-15T01:29:53.499Z,0
2016-06-15T01:30:53.485Z,0
2016-06-15T01:31:53.474Z,0
2016-06-15T01:32:53.460Z,0
2016-06-15T01:33:53.464Z,0
2016-06-15T01:34:53.435Z,0
2016-06-15T01:35:53.970Z,0
2016-06-15T01:36:53.410Z,0
2016-06-15T01:37:53.414Z,0
2016-06-15T01:38:53.385Z,0
2016-06-15T01:39:53.373Z,0
2016-06-15T01:40:53.360Z,0
2016-06-15T01:41:53.348Z,0
2016-06-15T01:42:53.319Z,0
2016-06-15T01:43:53.307Z,0
2016-06-15T01:44:53.295Z,0
2016-06-15T01:45:53.266Z,0
2016-06-15T01:46:53.113Z,0
2016-06-15T01:47:53.256Z,0
2016-06-15T01:48:53.229Z,0
2016-06-15T01:49:53.216Z,0
2016-06-15T01:50:53.204Z,0
2016-06-15T01:51:53.191Z,0
2016-06-15T01:52:53.038Z,0
2016-06-15T01:53:53.166Z,0
2016-06-15T01:54:53.153Z,0
2016-06-15T01:55:53.141Z,0
2016-06-15T01:56:53.128Z,0
2016-06-15T01:57:53.100Z,0
2016-06-15T01:58:53.087Z,0
2016-06-15T01:59:53.075Z,0
2016-06-15T02:00:53.047Z,0
2016-06-15T02:01:53.050Z,0
2016-06-15T02:02:53.038Z,0
2016-06-15T02:03:52.869Z,0
2016-06-15T02:04:52.981Z,0
2016-06-15T02:05:53.078Z,0
2016-06-15T02:06:52.971Z,0
2016-06-15T02:07:52.959Z,0
2016-06-15T02:08:52.962Z,0
2016-06-15T02:09:52.934Z,0
2016-06-15T02:10:52.921Z,0
2016-06-15T02:11:52.722Z,0
2016-06-15T02:12:52.725Z,0
2016-06-15T02:13:52.853Z,0
2016-06-15T02:14:52.856Z,0
2016-06-15T02:15:52.828Z,0
2016-06-15T02:16:52.831Z,0
2016-06-15T02:17:52.802Z,0
2016-06-15T02:18:52.805Z,0
2016-06-15T02:19:52.761Z,0
2016-06-15T02:20:52.764Z,0
2016-06-15T02:21:52.596Z,0
2016-06-15T02:22:52.740Z,0
2016-06-15T02:23:52.742Z,0
2016-06-15T02:24:52.715Z,0
2016-06-15T02:25:52.686Z,0
2016-06-15T02:26:52.673Z,0
2016-06-15T02:27:52.660Z,0
2016-06-15T02:28:52.633Z,0
2016-06-15T02:29:52.604Z,0
2016-06-15T02:30:52.624Z,0
2016-06-15T02:31:52.579Z,0
2016-06-15T02:32:52.598Z,0
2016-06-15T02:33:52.554Z,0
2016-06-15T02:34:52.557Z,0
2016-06-15T02:35:52.607Z,0
2016-06-15T02:36:52.532Z,0
2016-06-15T02:37:52.504Z,0
2016-06-15T02:38:52.351Z,0
2016-06-15T02:39:52.494Z,0
2016-06-15T02:40:52.466Z,0
2016-06-15T02:41:52.298Z,0
2016-06-15T02:42:52.425Z,0
2016-06-15T02:43:52.429Z,0
2016-06-15T02:44:52.417Z,0
2016-06-15T02:45:52.388Z,0
2016-06-15T02:46:52.376Z,0
2016-06-15T02:47:52.363Z,0
2016-06-15T02:48:52.335Z,0
2016-06-15T02:49:52.338Z,0
2016-06-15T02:50:53.545Z,0
2016-06-15T02:51:52.313Z,0
2016-06-15T02:52:52.285Z,0
2016-06-15T02:53:52.256Z,0
2016-06-15T02:54:52.260Z,0
2016-06-15T02:55:52.247Z,0
2016-06-15T02:56:52.219Z,0
2016-06-15T02:57:52.065Z,0
2016-06-15T02:58:52.194Z,0
2016-06-15T02:59:52.180Z,0
2016-06-15T03:00:52.169Z,0
2016-06-15T03:01:52.156Z,0
2016-06-15T03:02:52.144Z,0
2016-06-15T03:03:52.131Z,0
2016-06-15T03:04:52.118Z,0
2016-06-15T03:05:52.106Z,0
2016-06-15T03:06:52.078Z,0
2016-06-15T03:07:52.066Z,0
2016-06-15T03:08:52.053Z,0
2016-06-15T03:09:52.025Z,0
2016-06-15T03:10:51.855Z,0
2016-06-15T03:11:52.000Z,0
2016-06-15T03:12:51.987Z,0
2016-06-15T03:13:51.959Z,0
2016-06-15T03:14:51.977Z,0
2016-06-15T03:15:51.933Z,0
2016-06-15T03:16:51.921Z,0
2016-06-15T03:17:51.909Z,0
2016-06-15T03:18:51.896Z,0
2016-06-15T03:19:51.899Z,0
2016-06-15T03:20:51.948Z,0
2016-06-15T03:21:51.858Z,0
2016-06-15T03:22:51.845Z,0
2016-06-15T03:23:51.662Z,0
2016-06-15T03:24:51.789Z,0
2016-06-15T03:25:51.793Z,0
2016-06-15T03:26:51.780Z,0
2016-06-15T03:27:51.767Z,0
2016-06-15T03:28:51.755Z,0
2016-06-15T03:29:51.742Z,0
2016-06-15T03:30:51.714Z,0
2016-06-15T03:31:51.701Z,0
2016-06-15T03:32:51.689Z,0
2016-06-15T03:33:51.660Z,0
2016-06-15T03:34:51.680Z,0
2016-06-15T03:35:51.869Z,0
2016-06-15T03:36:51.483Z,0
2016-06-15T03:37:51.611Z,0
2016-06-15T03:38:51.598Z,0
2016-06-15T03:39:51.601Z,0
2016-06-15T03:40:51.589Z,0
2016-06-15T03:41:51.545Z,0
2016-06-15T03:42:51.548Z,0
2016-06-15T03:43:51.519Z,0
2016-06-15T03:44:51.507Z,0
2016-06-15T03:45:51.495Z,0
2016-06-15T03:46:51.466Z,0
2016-06-15T03:47:51.454Z,0
2016-06-15T03:48:51.456Z,0
2016-06-15T03:49:51.445Z,0
2016-06-15T03:50:51.978Z,0
2016-06-15T03:51:51.404Z,0
2016-06-15T03:52:51.093Z,0
2016-06-15T03:53:51.379Z,0
2016-06-15T03:54:51.365Z,0
2016-06-15T03:55:51.338Z,0
2016-06-15T03:56:51.341Z,0
2016-06-15T03:57:51.328Z,0
2016-06-15T03:58:51.316Z,0
2016-06-15T03:59:51.287Z,0
2016-06-15T04:00:51.150Z,0
2016-06-15T04:01:51.263Z,0
2016-06-15T04:02:51.234Z,0
2016-06-15T04:03:51.222Z,0
2016-06-15T04:04:51.224Z,0
2016-06-15T04:05:51.306Z,0
2016-06-15T04:06:51.169Z,0
2016-06-15T04:07:51.156Z,0
2016-06-15T04:08:50.987Z,0
2016-06-15T04:09:51.131Z,0
2016-06-15T04:10:51.118Z,0
2016-06-15T04:11:51.105Z,0
2016-06-15T04:12:51.093Z,0
2016-06-15T04:13:51.080Z,0
2016-06-15T04:14:51.052Z,0
2016-06-15T04:15:51.040Z,0
2016-06-15T04:16:51.027Z,0
2016-06-15T04:17:51.015Z,0
2016-06-15T04:18:51.018Z,0
2016-06-15T04:19:50.974Z,0
2016-06-15T04:20:51.040Z,0
2016-06-15T04:21:50.949Z,0
2016-06-15T04:22:50.952Z,0
2016-06-15T04:23:50.939Z,0
2016-06-15T04:24:50.912Z,0
2016-06-15T04:25:50.898Z,0
2016-06-15T04:26:50.887Z,0
2016-06-15T04:27:50.873Z,0
2016-06-15T04:28:50.862Z,0
2016-06-15T04:29:50.833Z,0
2016-06-15T04:30:50.821Z,0
2016-06-15T04:31:50.808Z,0
2016-06-15T04:32:50.795Z,0
2016-06-15T04:33:50.798Z,0
2016-06-15T04:34:50.770Z,0
2016-06-15T04:35:51.258Z,0
2016-06-15T04:36:50.729Z,0
2016-06-15T04:37:50.732Z,0
2016-06-15T04:38:50.704Z,0
2016-06-15T04:39:50.676Z,0
2016-06-15T04:40:50.508Z,0
2016-06-15T04:41:50.494Z,0
2016-06-15T04:42:50.638Z,0
2016-06-15T04:43:50.625Z,0
2016-06-15T04:44:50.613Z,4
2016-06-15T04:45:50.600Z,4
2016-06-15T04:46:50.588Z,0
2016-06-15T04:47:50.559Z,4
2016-06-15T04:48:50.563Z,4
2016-06-15T04:49:50.551Z,4
2016-06-15T04:50:50.366Z,8
2016-06-15T04:51:50.353Z,8
2016-06-15T04:52:50.497Z,8
2016-06-15T04:53:50.469Z,8
2016-06-15T04:54:50.472Z,8
2016-06-15T04:55:50.287Z,12
2016-06-15T04:56:50.447Z,16
2016-06-15T04:57:50.435Z,16
2016-06-15T04:58:50.406Z,16
2016-06-15T04:59:50.394Z,24
2016-06-15T05:00:50.380Z,28
2016-06-15T05:01:50.213Z,32
2016-06-15T05:02:50.341Z,36
2016-06-15T05:03:50.328Z,40
2016-06-15T05:04:50.331Z,48
2016-06-15T05:05:50.381Z,52
2016-06-15T05:06:50.368Z,60
2016-06-15T05:07:50.277Z,68
2016-06-15T05:08:50.250Z,80
2016-06-15T05:09:50.252Z,88
2016-06-15T05:10:50.241Z,100
2016-06-15T05:11:50.227Z,108
2016-06-15T05:12:50.215Z,124
2016-06-15T05:13:50.187Z,132
2016-06-15T05:14:50.174Z,148
2016-06-15T05:15:50.146Z,160
2016-06-15T05:16:49.993Z,168
2016-06-15T05:17:50.121Z,188
2016-06-15T05:18:50.108Z,204
2016-06-15T05:19:50.097Z,220
2016-06-15T05:20:50.099Z,236
2016-06-15T05:21:49.931Z,260
2016-06-15T05:22:50.042Z,280
2016-06-15T05:23:49.874Z,292
2016-06-15T05:24:50.048Z,316
2016-06-15T05:25:50.005Z,352
2016-06-15T05:26:49.992Z,368
2016-06-15T05:27:49.980Z,372
2016-06-15T05:28:49.811Z,396
2016-06-15T05:29:49.939Z,432
2016-06-15T05:30:49.927Z,464
2016-06-15T05:31:49.914Z,512
2016-06-15T05:32:49.886Z,524
2016-06-15T05:33:49.889Z,496
2016-06-15T05:34:49.860Z,492
2016-06-15T05:35:49.724Z,496
2016-06-15T05:36:50.476Z,504
2016-06-15T05:37:49.823Z,528
2016-06-15T05:38:49.794Z,560
2016-06-15T05:39:49.797Z,572
2016-06-15T05:40:49.769Z,652
2016-06-15T05:41:49.757Z,688
2016-06-15T05:42:49.745Z,740
2016-06-15T05:43:49.762Z,776
2016-06-15T05:44:49.735Z,756
2016-06-15T05:45:49.738Z,728
2016-06-15T05:46:49.695Z,748
2016-06-15T05:47:49.682Z,744
2016-06-15T05:48:49.654Z,708
2016-06-15T05:49:49.641Z,700
2016-06-15T05:50:49.659Z,688
2016-06-15T05:51:50.022Z,708
2016-06-15T05:52:49.604Z,692
2016-06-15T05:53:49.590Z,680
2016-06-15T05:54:49.563Z,648
2016-06-15T05:55:49.393Z,620
2016-06-15T05:56:49.538Z,528
2016-06-15T05:57:49.510Z,484
2016-06-15T05:58:49.528Z,496
2016-06-15T05:59:49.359Z,476
2016-06-15T06:00:49.487Z,424
2016-06-15T06:01:49.490Z,392
2016-06-15T06:02:49.463Z,288
2016-06-15T06:03:49.449Z,216
2016-06-15T06:04:49.422Z,164
2016-06-15T06:05:49.409Z,152
2016-06-15T06:06:50.130Z,204
2016-06-15T06:07:49.384Z,228
2016-06-15T06:08:49.356Z,216
2016-06-15T06:09:49.202Z,228
2016-06-15T06:10:49.346Z,332
2016-06-15T06:11:49.334Z,432
2016-06-15T06:12:49.165Z,480
2016-06-15T06:13:49.278Z,596
2016-06-15T06:14:49.280Z,600
2016-06-15T06:15:49.269Z,644
2016-06-15T06:16:49.255Z,784
2016-06-15T06:17:49.087Z,1004
2016-06-15T06:18:49.214Z,1236
2016-06-15T06:19:49.218Z,1524
2016-06-15T06:20:49.190Z,1728
2016-06-15T06:21:49.599Z,1712
2016-06-15T06:22:49.165Z,1580
2016-06-15T06:23:49.152Z,1528
2016-06-15T06:24:49.139Z,1496
2016-06-15T06:25:49.111Z,1676
2016-06-15T06:26:49.099Z,1960
2016-06-15T06:27:48.945Z,2248
2016-06-15T06:28:49.058Z,2672
2016-06-15T06:29:49.046Z,3036
2016-06-15T06:30:49.032Z,2972
2016-06-15T06:31:49.036Z,2824
2016-06-15T06:32:48.992Z,2780
2016-06-15T06:33:48.996Z,2860
2016-06-15T06:34:48.983Z,2956
2016-06-15T06:35:48.955Z,3120
2016-06-15T06:36:48.942Z,3060
2016-06-15T06:37:48.928Z,3052
2016-06-15T06:38:48.917Z,2872
2016-06-15T06:39:48.904Z,2808
2016-06-15T06:40:48.782Z,2816
2016-06-15T06:41:48.863Z,2884
2016-06-15T06:42:48.929Z,2844
2016-06-15T06:43:49.588Z,2936
2016-06-15T06:44:49.419Z,2872
2016-06-15T06:45:50.595Z,2520
2016-06-15T06:46:48.816Z,2232
2016-06-15T06:47:48.804Z,2008
2016-06-15T06:48:48.603Z,2148
2016-06-15T06:49:48.748Z,2468
2016-06-15T06:50:48.735Z,3020
2016-06-15T06:51:49.441Z,3196
2016-06-15T06:52:48.710Z,3064
2016-06-15T06:53:48.697Z,3012
2016-06-15T06:54:48.669Z,3064
2016-06-15T06:55:48.657Z,2852
2016-06-15T06:56:48.659Z,2588
2016-06-15T06:57:48.632Z,2144
2016-06-15T06:58:48.665Z,1820
2016-06-15T06:59:48.607Z,1708
2016-06-15T07:00:48.594Z,1600
2016-06-15T07:01:48.582Z,1608
2016-06-15T07:02:48.569Z,1472
2016-06-15T07:03:48.556Z,1580
2016-06-15T07:04:48.528Z,1748
2016-06-15T07:05:48.937Z,1968
2016-06-15T07:06:48.972Z,2764
2016-06-15T07:07:48.490Z,3624
2016-06-15T07:08:48.478Z,4632
2016-06-15T07:09:48.465Z,4984
2016-06-15T07:10:50.187Z,4976
2016-06-15T07:11:48.441Z,4604
2016-06-15T07:12:48.411Z,4332
2016-06-15T07:13:48.400Z,4320
2016-06-15T07:14:48.386Z,4200
2016-06-15T07:15:48.375Z,3900
2016-06-15T07:16:48.346Z,3956
2016-06-15T07:17:48.349Z,3632
2016-06-15T07:18:48.321Z,2676
2016-06-15T07:19:48.293Z,2256
2016-06-15T07:20:48.280Z,1932
2016-06-15T07:21:48.909Z,2176
2016-06-15T07:22:48.255Z,2084
2016-06-15T07:23:48.102Z,2732
2016-06-15T07:24:48.230Z,3996
2016-06-15T07:25:48.218Z,6024
2016-06-15T07:26:48.204Z,7144
2016-06-15T07:27:48.193Z,6160
2016-06-15T07:28:48.180Z,5140
2016-06-15T07:29:47.996Z,3904
2016-06-15T07:30:48.327Z,3216
2016-06-15T07:31:48.127Z,2724
2016-06-15T07:32:48.145Z,2504
2016-06-15T07:33:48.101Z,2508
2016-06-15T07:34:48.089Z,2564
2016-06-15T07:35:49.498Z,2616
2016-06-15T07:36:48.064Z,3452
2016-06-15T07:37:48.051Z,3528
2016-06-15T07:38:47.866Z,2944
2016-06-15T07:39:48.026Z,2352
2016-06-15T07:40:48.608Z,2404
2016-06-15T07:41:47.986Z,2856
2016-06-15T07:42:47.988Z,3124
2016-06-15T07:43:47.945Z,3280
2016-06-15T07:44:47.948Z,3268
2016-06-15T07:45:47.935Z,3440
2016-06-15T07:46:47.923Z,4788
2016-06-15T07:47:47.894Z,5116
2016-06-15T07:48:47.897Z,6072
2016-06-15T07:49:47.572Z,6396
2016-06-15T07:50:47.857Z,5144
2016-06-15T07:51:48.656Z,4560
2016-06-15T07:52:47.832Z,5156
2016-06-15T07:53:47.819Z,5388
2016-06-15T07:54:47.806Z,4984
2016-06-15T07:55:48.904Z,5004
2016-06-15T07:56:47.766Z,4880
2016-06-15T07:57:47.769Z,4160
2016-06-15T07:58:47.724Z,4140
2016-06-15T07:59:47.572Z,3432
2016-06-15T08:00:48.013Z,3176
2016-06-15T08:01:47.687Z,3796
2016-06-15T08:02:47.675Z,5008
2016-06-15T08:03:47.662Z,6252
2016-06-15T08:04:47.665Z,7004
2016-06-15T08:05:48.637Z,7308
2016-06-15T08:06:48.047Z,7624
2016-06-15T08:07:47.627Z,7812
2016-06-15T08:08:47.584Z,7588
2016-06-15T08:09:47.572Z,7328
2016-06-15T08:10:48.480Z,6964
2016-06-15T08:11:47.562Z,6092
2016-06-15T08:12:47.533Z,5280
2016-06-15T08:13:47.537Z,4708
2016-06-15T08:14:47.509Z,5192
2016-06-15T08:15:48.652Z,6336
2016-06-15T08:16:47.516Z,6996
2016-06-15T08:17:47.455Z,6460
2016-06-15T08:18:47.458Z,6240
2016-06-15T08:19:47.430Z,6712
2016-06-15T08:20:53.339Z,7108
2016-06-15T08:21:49.296Z,6452
2016-06-15T08:22:47.611Z,5932
2016-06-15T08:23:49.584Z,5332
2016-06-15T08:24:47.368Z,6180
2016-06-15T08:25:47.340Z,6764
2016-06-15T08:26:47.327Z,6448
2016-06-15T08:27:47.330Z,5612
2016-06-15T08:28:47.005Z,5452
2016-06-15T08:29:47.148Z,6808
2016-06-15T08:30:49.698Z,7408
2016-06-15T08:31:47.248Z,8448
2016-06-15T08:32:47.252Z,8460
2016-06-15T08:33:47.239Z,7308
2016-06-15T08:34:47.211Z,6468
2016-06-15T08:35:48.996Z,6936
2016-06-15T08:36:47.077Z,6232
2016-06-15T08:37:47.189Z,5024
2016-06-15T08:38:47.144Z,3936
2016-06-15T08:39:47.179Z,3684
2016-06-15T08:40:47.386Z,3576
2016-06-15T08:41:47.123Z,3352
2016-06-15T08:42:47.095Z,3272
2016-06-15T08:43:47.082Z,3288
2016-06-15T08:44:47.069Z,2712
2016-06-15T08:45:47.058Z,2832
2016-06-15T08:46:47.060Z,3696
2016-06-15T08:47:47.048Z,3864
2016-06-15T08:48:47.019Z,3972
2016-06-15T08:49:46.709Z,4000
2016-06-15T08:50:47.995Z,4148
2016-06-15T08:51:46.825Z,4488
2016-06-15T08:52:47.719Z,5580
2016-06-15T08:53:46.956Z,6820
2016-06-15T08:54:46.929Z,7568
2016-06-15T08:55:47.369Z,7352
2016-06-15T08:56:46.903Z,6840
2016-06-15T08:57:46.906Z,6852
2016-06-15T08:58:46.878Z,7072
2016-06-15T08:59:46.881Z,7696
2016-06-15T09:00:46.853Z,7584
2016-06-15T09:01:46.826Z,6848
2016-06-15T09:02:46.829Z,6616
2016-06-15T09:03:46.800Z,7220
2016-06-15T09:04:46.788Z,8504
2016-06-15T09:05:46.775Z,9312
2016-06-15T09:06:48.075Z,9284
2016-06-15T09:07:46.765Z,9720
2016-06-15T09:08:46.738Z,9836
2016-06-15T09:09:46.693Z,10484
2016-06-15T09:10:46.696Z,11188
2016-06-15T09:11:46.716Z,11116
2016-06-15T09:12:46.781Z,10548
2016-06-15T09:13:46.682Z,9960
2016-06-15T09:14:46.655Z,10028
2016-06-15T09:16:10.705Z,9636
2016-06-15T09:16:46.755Z,9528
2016-06-15T09:17:46.603Z,8892
2016-06-15T09:18:46.462Z,8696
2016-06-15T09:19:46.621Z,6996
2016-06-15T09:20:46.561Z,6888
2016-06-15T09:21:46.565Z,6420
2016-06-15T09:22:46.380Z,6360
2016-06-15T09:23:46.509Z,7872
2016-06-15T09:24:46.495Z,9696
2016-06-15T09:25:46.577Z,12836
2016-06-15T09:26:46.345Z,13648
2016-06-15T09:27:46.724Z,13648
2016-06-15T09:28:46.446Z,15332
2016-06-15T09:29:46.443Z,15564
2016-06-15T09:30:46.415Z,15944
2016-06-15T09:31:46.808Z,13292
2016-06-15T09:32:46.406Z,12488
2016-06-15T09:33:46.393Z,12072
2016-06-15T09:34:46.395Z,10996
2016-06-15T09:35:46.821Z,8720
2016-06-15T09:36:46.355Z,6736
2016-06-15T09:37:47.420Z,5252
2016-06-15T09:38:46.360Z,4640
2016-06-15T09:39:46.192Z,4588
2016-06-15T09:40:46.117Z,5332
2016-06-15T09:41:46.277Z,5548
2016-06-15T09:42:46.248Z,5488
2016-06-15T09:43:46.236Z,5792
2016-06-15T09:44:46.239Z,6420
2016-06-15T09:45:46.212Z,7556
2016-06-15T09:46:46.214Z,7940
2016-06-15T09:47:46.045Z,7588
2016-06-15T09:48:46.079Z,7588
2016-06-15T09:49:46.161Z,8652
2016-06-15T09:50:46.210Z,9660
2016-06-15T09:51:47.386Z,9960
2016-06-15T09:52:46.498Z,10308
2016-06-15T09:53:46.736Z,11804
2016-06-15T09:54:46.394Z,12588
2016-06-15T09:55:46.085Z,12104
2016-06-15T09:56:46.041Z,12620
2016-06-15T09:57:46.029Z,11880
2016-06-15T09:58:46.032Z,12168
2016-06-15T09:59:46.161Z,14640
2016-06-15T10:00:46.116Z,16036
2016-06-15T10:01:46.088Z,17060
2016-06-15T10:02:45.981Z,18112
2016-06-15T10:03:46.031Z,16460
2016-06-15T10:04:45.975Z,14892
2016-06-15T10:05:46.018Z,14440
2016-06-15T10:06:46.139Z,14988
2016-06-15T10:07:46.246Z,14904
2016-06-15T10:08:46.163Z,13260
2016-06-15T10:09:46.084Z,11152
2016-06-15T10:10:46.087Z,10716
2016-06-15T10:11:46.103Z,10880
2016-06-15T10:12:46.261Z,11108
2016-06-15T10:13:45.998Z,11028
2016-06-15T10:14:46.074Z,11044
2016-06-15T10:15:46.144Z,11208
2016-06-15T10:16:46.074Z,11556
2016-06-15T10:17:56.997Z,12260
2016-06-15T10:18:46.028Z,12940
2016-06-15T10:19:45.895Z,12616
2016-06-15T10:20:46.040Z,12508
2016-06-15T10:21:46.045Z,13308
2016-06-15T10:22:46.613Z,14460
2016-06-15T10:23:45.977Z,14724
2016-06-15T10:24:45.825Z,16252
2016-06-15T10:25:45.985Z,16772
2016-06-15T10:26:45.958Z,16988
2016-06-15T10:27:45.960Z,16964
2016-06-15T10:28:45.917Z,17012
2016-06-15T10:29:45.921Z,16612
2016-06-15T10:30:45.909Z,16400
2016-06-15T10:31:46.130Z,15820
2016-06-15T10:32:46.041Z,15988
2016-06-15T10:33:45.825Z,15960
2016-06-15T10:34:45.907Z,13312
2016-06-15T10:35:52.879Z,13200
2016-06-15T10:36:56.620Z,13280
2016-06-15T10:38:08.435Z,12104
2016-06-15T10:39:05.781Z,12148
2016-06-15T10:40:13.051Z,16960
2016-06-15T10:41:07.304Z,14972
2016-06-15T10:42:06.448Z,14244
2016-06-15T10:43:04.310Z,16176
2016-06-15T10:43:45.763Z,18176
2016-06-15T10:44:45.719Z,20576
2016-06-15T10:46:01.425Z,19840
2016-06-15T10:47:21.775Z,18752
2016-06-15T10:49:26.626Z,17600
2016-06-15T10:50:44.082Z,16792
2016-06-15T10:51:38.507Z,14972
2016-06-15T10:54:02.888Z,22208
2016-06-15T10:55:53.581Z,18816
2016-06-15T10:56:06.644Z,18848
2016-06-15T10:57:06.694Z,17664
2016-06-15T10:58:06.681Z,14012
2016-06-15T10:59:06.622Z,8360
2016-06-15T11:00:06.626Z,5404
2016-06-15T11:01:06.613Z,4460
2016-06-15T11:02:06.569Z,6388
2016-06-15T11:03:06.650Z,9964
2016-06-15T11:04:06.575Z,13584
2016-06-15T11:05:06.547Z,15744
2016-06-15T11:06:06.440Z,17520
2016-06-15T11:07:06.382Z,16684
2016-06-15T11:08:06.884Z,15888
2016-06-15T11:09:06.496Z,15456
2016-06-15T11:10:06.578Z,15736
2016-06-15T11:11:06.565Z,17856
2016-06-15T11:12:06.522Z,21632
2016-06-15T11:13:06.353Z,22624
2016-06-15T11:14:06.294Z,18816
2016-06-15T11:15:06.296Z,19296
2016-06-15T11:16:06.393Z,22144
2016-06-15T11:17:06.474Z,22304
2016-06-15T11:18:06.227Z,23168
2016-06-15T11:19:06.372Z,21824
2016-06-15T11:20:06.358Z,18688
2016-06-15T11:21:06.347Z,22336
2016-06-15T11:22:06.178Z,20416
2016-06-15T11:23:06.664Z,19456
2016-06-15T11:24:06.324Z,21056
2016-06-15T11:25:06.328Z,19008
2016-06-15T11:26:06.142Z,18624
2016-06-15T11:27:07.755Z,19520
2016-06-15T11:28:06.712Z,18720
2016-06-15T11:29:06.542Z,22816
2016-06-15T11:30:06.093Z,14804
2016-06-15T11:31:06.252Z,15672
2016-06-15T11:32:06.239Z,23392
2016-06-15T11:33:06.195Z,18464
2016-06-15T11:34:06.183Z,47616
2016-06-15T11:35:06.264Z,83296
2016-06-15T11:36:06.315Z,28096
2016-06-15T11:37:06.005Z,23776
2016-06-15T11:38:06.710Z,65088
2016-06-15T11:39:06.135Z,46720
2016-06-15T11:40:06.154Z,64192
2016-06-15T11:41:06.126Z,93824
2016-06-15T11:42:05.989Z,116160
2016-06-15T11:43:06.070Z,113760
2016-06-15T11:44:06.089Z,117696
2016-06-15T11:45:06.076Z,117920
2016-06-15T11:46:06.079Z,96320
2016-06-15T11:47:06.067Z,66624
2016-06-15T11:48:06.054Z,111040
2016-06-15T11:49:06.041Z,111360
2016-06-15T11:50:06.061Z,48928
2016-06-15T11:51:06.032Z,120320
2016-06-15T11:52:05.926Z,118528
2016-06-15T11:53:06.179Z,18464
2016-06-15T11:54:06.042Z,18720
2016-06-15T11:55:06.045Z,37760
2016-06-15T11:56:06.000Z,37920
2016-06-15T11:57:06.004Z,117088
2016-06-15T11:58:06.007Z,12664
2016-06-15T11:59:05.994Z,12600
2016-06-15T12:00:06.076Z,8800
2016-06-15T12:01:05.984Z,113696
2016-06-15T12:02:05.973Z,114016
2016-06-15T12:03:05.960Z,109024
2016-06-15T12:04:05.963Z,115232
2016-06-15T12:05:05.951Z,13384
2016-06-15T12:06:05.968Z,106976
2016-06-15T12:07:05.785Z,85632
2016-06-15T12:08:05.990Z,62368
2016-06-15T12:09:05.916Z,9260
2016-06-15T12:10:06.028Z,25472
2016-06-15T12:11:05.922Z,22112
2016-06-15T12:12:05.972Z,20992
2016-06-15T12:13:05.896Z,18976
2016-06-15T12:14:05.915Z,18272
2016-06-15T12:15:05.888Z,18144
2016-06-15T12:16:05.891Z,17984
2016-06-15T12:17:05.721Z,19104
2016-06-15T12:18:05.865Z,25504
2016-06-15T12:19:05.853Z,19968
2016-06-15T12:20:05.872Z,20800
2016-06-15T12:21:05.859Z,10668
2016-06-15T12:22:05.846Z,8720
2016-06-15T12:23:06.536Z,19904
2016-06-15T12:24:05.915Z,27200
2016-06-15T12:25:05.949Z,32128
2016-06-15T12:26:05.843Z,26912
2016-06-15T12:27:05.893Z,20832
2016-06-15T12:28:05.927Z,19712
2016-06-15T12:29:05.820Z,20416
2016-06-15T12:30:06.137Z,20096
2016-06-15T12:31:05.812Z,20128
2016-06-15T12:32:05.815Z,23104
2016-06-15T12:33:05.801Z,21568
2016-06-15T12:34:05.804Z,20864
2016-06-15T12:35:05.793Z,23136
2016-06-15T12:36:05.796Z,23744
2016-06-15T12:37:05.954Z,15988
2016-06-15T12:38:06.083Z,13752
2016-06-15T12:39:05.805Z,22432
2016-06-15T12:40:05.823Z,22208
2016-06-15T12:41:05.827Z,15512
2016-06-15T12:42:05.892Z,16500
2016-06-15T12:43:05.801Z,25376
2016-06-15T12:44:05.741Z,24768
2016-06-15T12:45:05.761Z,24704
2016-06-15T12:46:05.764Z,23072
2016-06-15T12:47:05.814Z,24672
2016-06-15T12:48:05.583Z,22368
2016-06-15T12:49:05.725Z,23200
2016-06-15T12:50:05.839Z,25120
2016-06-15T12:51:05.717Z,24544
2016-06-15T12:52:05.720Z,24864
2016-06-15T12:53:05.566Z,17920
2016-06-15T12:54:05.726Z,26944
2016-06-15T12:55:05.698Z,26816
2016-06-15T12:56:05.700Z,34944
2016-06-15T12:57:05.703Z,52512
2016-06-15T12:58:05.378Z,70624
2016-06-15T12:59:05.695Z,82528
2016-06-15T13:00:05.698Z,96320
2016-06-15T13:01:05.685Z,11640
2016-06-15T13:02:05.782Z,116896
2016-06-15T13:03:05.675Z,117344
2016-06-15T13:04:05.538Z,114080
2016-06-15T13:05:05.666Z,112288
2016-06-15T13:06:05.684Z,116064
2016-06-15T13:07:05.672Z,112032
2016-06-15T13:08:07.034Z,107232
2016-06-15T13:09:05.678Z,107936
2016-06-15T13:10:05.682Z,117024
2016-06-15T13:11:05.668Z,116128
2016-06-15T13:12:05.702Z,116544
2016-06-15T13:13:05.660Z,112448
2016-06-15T13:14:05.662Z,109120
2016-06-15T13:15:05.650Z,111008
2016-06-15T13:16:05.637Z,111296
2016-06-15T13:17:05.640Z,108992
2016-06-15T13:18:05.487Z,108512
2016-06-15T13:19:05.646Z,108736
2016-06-15T13:20:05.649Z,110912
2016-06-15T13:21:05.638Z,29888
2016-06-15T13:22:05.624Z,119072
2016-06-15T13:23:05.877Z,31296
2016-06-15T13:24:05.725Z,118688
2016-06-15T13:25:05.617Z,116160
2016-06-15T13:26:05.621Z,113792
2016-06-15T13:27:05.656Z,78848
2016-06-15T13:28:05.674Z,15096
2016-06-15T13:29:05.864Z,15168
2016-06-15T13:30:05.618Z,53568
2016-06-15T13:31:05.590Z,118016
2016-06-15T13:32:05.655Z,110432
2016-06-15T13:33:04.924Z,110016
2016-06-15T13:34:05.645Z,113760
2016-06-15T13:35:05.681Z,112640
2016-06-15T13:36:05.589Z,110976
2016-06-15T13:37:05.593Z,109152
2016-06-15T13:38:06.190Z,23296
2016-06-15T13:39:05.583Z,13840
2016-06-15T13:40:05.601Z,129472
2016-06-15T13:41:05.589Z,19264
2016-06-15T13:42:06.077Z,18976
2016-06-15T13:43:05.861Z,23456
2016-06-15T13:44:05.395Z,76992
2016-06-15T13:45:05.837Z,100448